Terminal Aerodrome Forecast
Issued by NWS Corpus Christi, TX

Home | Current Version | Previous Version | Text Only | Print | Product List | Glossary On
Versions: 1 2 3 4 5 6 7 8 9 10 11 12 13 14 15 16 17
000
FTUS44 KCRP 262335
TAFCRP
TAF
KCRP 262335Z 2700/2724 16025KT P6SM FEW025 FEW035
     FM270200 16011KT P6SM SCT250
     FM270400 16009KT 6SM BR BKN013
     FM270800 16009KT 6SM BR BKN008
     FM271100 16006KT 4SM BR FEW003 BKN006
     FM271600 16007KT P6SM FEW006 BKN012
     FM271900 15015G25KT P6SM BKN015=

USA.gov is the U.S. government's official web portal to all federal, state and local government web resources and services.